Buckhorn, New Mexico
Current Conditions -  °F | °C
As of 1:35 AM on Sunday 26 Oct 2014 (Local Time) from KSVC Reporting Station
Scattered Clouds Scattered Clouds  
Wind Chill: 14°   Ceiling: Unl
Heat Index: 14°   Visibility: 10mi
Dew Point:   Wind: 7mph
Humidity: 59%   Direction: 330°NNW
Pressure: 30.22"   Gusts: NA
Location:  33.03°N, 108.71°W
Report Text: KSVC 260735Z AUTO 33006KT 10SM SCT075 14/06 A3022 RMK AO2
Loading
Personal Weather Stations






























Interactive Weather Map
Tropical Storm Tracking
New forecast layout! Learn more

10-Day Weather Forecast

Advertisements
Track Severe Weather on mobile